Time;durP1;ratioP1;P1;durP2;ratioP2;P2;SDS_P1;SDS_P2;PMS_P1;PMS_P2;Temp;Humidity;BMP_temperature;BMP_pressure;BME280_temperature;BME280_humidity;BME280_pressure;Samples;Min_cycle;Max_cycle;Signal;HPM_P1;HPM_P2
2021/01/06 00:01:32;;;;;;;0.73;0.60;;;;;;;3.49;71.75;100751.19;4855624;29;20081;-75
2021/01/06 00:03:58;;;;;;;0.70;0.70;;;;;;;3.46;71.38;100746.16;4849222;29;20037;-73
2021/01/06 00:06:40;;;;;;;4.10;1.23;;;;;;;3.47;72.01;100747.84;4834110;29;20442;-73
2021/01/06 00:09:26;;;;;;;1.23;0.50;;;;;;;3.46;71.99;100752.41;4873090;29;20044;-75
2021/01/06 00:11:51;;;;;;;1.48;0.52;;;;;;;3.48;72.16;100744.09;4854254;29;20049;-75
2021/01/06 00:14:17;;;;;;;1.42;1.33;;;;;;;3.47;71.83;100745.13;4843503;29;20060;-74
2021/01/06 00:16:42;;;;;;;0.57;0.57;;;;;;;3.43;71.47;100742.03;4831871;29;20042;-73
2021/01/06 00:19:11;;;;;;;2.90;0.90;;;;;;;3.54;71.23;100754.06;4855801;29;20080;-73
2021/01/06 00:21:38;;;;;;;3.33;0.85;;;;;;;3.57;72.50;100753.63;4873145;29;20061;-72
2021/01/06 00:24:12;;;;;;;4.60;0.93;;;;;;;3.58;71.46;100749.91;4862460;29;20056;-74
2021/01/06 00:26:41;;;;;;;1.10;0.85;;;;;;;3.59;71.81;100751.56;4860760;29;20496;-78
2021/01/06 00:29:11;;;;;;;6.13;1.38;;;;;;;3.58;71.64;100755.31;4856993;29;20036;-78
2021/01/06 00:31:44;;;;;;;6.55;1.20;;;;;;;3.62;71.56;100761.97;4862573;29;20084;-79
2021/01/06 00:34:11;;;;;;;1.13;0.98;;;;;;;3.63;71.34;100762.78;4859602;29;20116;-78
2021/01/06 00:36:37;;;;;;;0.98;0.90;;;;;;;3.65;71.32;100749.88;4861125;29;20085;-78
2021/01/06 00:39:05;;;;;;;1.92;1.15;;;;;;;3.70;71.25;100762.78;4864882;29;20034;-78
2021/01/06 00:41:32;;;;;;;5.72;1.38;;;;;;;3.70;71.45;100762.78;4862156;29;20090;-77
2021/01/06 00:43:58;;;;;;;5.80;1.50;;;;;;;3.64;71.60;100757.16;4864127;29;20090;-76
2021/01/06 00:46:31;;;;;;;1.17;1.08;;;;;;;3.70;71.19;100763.59;4860964;29;20484;-77
2021/01/06 00:49:00;;;;;;;1.20;0.98;;;;;;;3.65;71.08;100753.41;4861047;29;20025;-76
2021/01/06 00:51:26;;;;;;;2.92;1.20;;;;;;;3.69;71.37;100759.22;4858070;29;20117;-77
2021/01/06 00:54:00;;;;;;;6.30;1.10;;;;;;;3.62;71.85;100745.72;4860208;29;20040;-75
2021/01/06 00:56:34;;;;;;;1.27;1.00;;;;;;;3.63;71.21;100752.78;4864139;29;20060;-75
2021/01/06 00:58:59;;;;;;;5.10;1.42;;;;;;;3.59;70.97;100756.97;4863502;29;20029;-78
2021/01/06 01:01:26;;;;;;;4.35;1.92;;;;;;;3.57;71.64;100747.41;4871254;29;20033;-79
2021/01/06 01:03:52;;;;;;;1.27;1.15;;;;;;;3.53;71.17;100746.97;4879848;29;20010;-79
2021/01/06 01:06:34;;;;;;;1.17;1.17;;;;;;;3.53;71.07;100740.75;4884699;29;20041;-77
2021/01/06 01:08:59;;;;;;;5.93;1.33;;;;;;;3.50;71.29;100744.72;4878443;29;20033;-77
2021/01/06 01:11:29;;;;;;;1.42;1.05;;;;;;;3.45;71.07;100739.13;4882070;29;20060;-77
2021/01/06 01:13:55;;;;;;;1.35;1.30;;;;;;;3.45;71.71;100739.13;4878374;29;20029;-77
2021/01/06 01:16:24;;;;;;;5.35;1.10;;;;;;;3.45;72.24;100744.53;4874028;29;20049;-77
2021/01/06 01:18:50;;;;;;;3.72;1.77;;;;;;;3.42;71.94;100744.94;4867593;29;20038;-78
2021/01/06 01:21:22;;;;;;;2.17;1.30;;;;;;;3.44;72.44;100734.75;4854264;29;20061;-77
2021/01/06 01:23:50;;;;;;;0.82;0.82;;;;;;;3.42;71.91;100739.53;4866320;29;20026;-77
2021/01/06 01:26:15;;;;;;;0.90;0.90;;;;;;;3.41;72.36;100735.97;4853295;29;20034;-74
2021/01/06 01:28:41;;;;;;;1.38;0.85;;;;;;;3.42;71.72;100734.13;4858673;29;20044;-75
2021/01/06 01:31:07;;;;;;;1.70;1.25;;;;;;;3.43;72.50;100735.78;4860866;29;20481;-76
2021/01/06 01:33:33;;;;;;;2.97;0.88;;;;;;;3.44;72.13;100732.03;4880297;29;20041;-76
2021/01/06 01:35:59;;;;;;;6.05;1.20;;;;;;;3.45;71.49;100731.00;4892276;29;20030;-76
2021/01/06 01:38:27;;;;;;;0.80;0.80;;;;;;;3.45;71.96;100734.53;4869713;29;20038;-77
2021/01/06 01:41:23;;;;;;;3.92;1.05;;;;;;;3.49;71.57;100735.78;4860064;29;21072;-76
2021/01/06 01:43:49;;;;;;;1.40;0.95;;;;;;;3.51;71.88;100732.84;4848133;29;20041;-75
2021/01/06 01:47:02;;;;;;;1.98;1.13;;;;;;;3.54;72.44;100732.44;4863500;29;20090;-76
2021/01/06 01:49:41;;;;;;;3.42;1.25;;;;;;;3.52;72.40;100736.38;4850725;29;20093;-76
2021/01/06 01:52:20;;;;;;;9.43;2.35;;;;;;;3.52;72.75;100733.69;4857804;29;20124;-75
2021/01/06 01:54:52;;;;;;;1.40;1.15;;;;;;;3.55;72.11;100739.50;4893495;29;20066;-75
2021/01/06 01:57:22;;;;;;;4.63;1.45;;;;;;;3.53;72.26;100730.75;4893244;29;20892;-77
2021/01/06 01:59:54;;;;;;;1.00;1.00;;;;;;;3.57;73.13;100729.28;4879993;29;20049;-76
2021/01/06 02:02:35;;;;;;;0.95;0.93;;;;;;;3.63;72.14;100733.84;4881818;29;20005;-77
2021/01/06 02:05:20;;;;;;;1.00;0.82;;;;;;;3.60;72.72;100728.88;4870745;29;20029;-76
2021/01/06 02:07:57;;;;;;;3.55;1.38;;;;;;;3.67;72.29;100729.69;4881464;29;20114;-77
2021/01/06 02:10:32;;;;;;;3.67;1.30;;;;;;;3.69;72.53;100723.25;4864871;29;20108;-77
2021/01/06 02:13:16;;;;;;;5.20;1.50;;;;;;;3.72;72.21;100736.34;4860027;29;20057;-77
2021/01/06 02:16:07;;;;;;;2.40;1.30;;;;;;;3.74;72.25;100739.63;4861397;29;20030;-77
2021/01/06 02:18:34;;;;;;;2.58;1.40;;;;;;;3.73;73.24;100740.72;4851111;29;20045;-77
2021/01/06 02:21:15;;;;;;;2.53;0.95;;;;;;;3.75;73.02;100735.91;4858821;29;21568;-77
2021/01/06 02:23:43;;;;;;;2.10;1.38;;;;;;;3.74;72.71;100742.34;4859341;29;20064;-77
2021/01/06 02:26:11;;;;;;;1.60;1.00;;;;;;;3.77;72.75;100737.34;4862063;29;20064;-78
2021/01/06 02:28:37;;;;;;;1.48;1.10;;;;;;;3.78;72.47;100738.19;4857581;29;20393;-77
2021/01/06 02:31:05;;;;;;;2.72;1.08;;;;;;;3.76;73.02;100734.88;4862434;29;20037;-77
2021/01/06 02:33:35;;;;;;;2.08;1.45;;;;;;;3.77;72.64;100726.53;4859594;29;20191;-77
2021/01/06 02:36:04;;;;;;;1.20;1.10;;;;;;;3.81;72.74;100725.06;4840439;29;20401;-77
2021/01/06 02:38:30;;;;;;;5.32;1.58;;;;;;;3.80;72.75;100726.09;4861764;29;20021;-76
2021/01/06 02:40:56;;;;;;;3.28;1.40;;;;;;;3.81;72.30;100735.03;4859562;29;20040;-76
2021/01/06 02:43:24;;;;;;;2.33;0.90;;;;;;;3.81;73.16;100726.94;4877615;29;20025;-76
2021/01/06 02:45:56;;;;;;;1.50;1.13;;;;;;;3.82;73.35;100724.00;4858696;29;20037;-76
2021/01/06 02:48:23;;;;;;;1.95;0.95;;;;;;;3.86;73.56;100729.84;4863212;29;20077;-77
2021/01/06 02:50:54;;;;;;;1.33;1.25;;;;;;;3.89;73.54;100724.00;4860651;29;20609;-77
2021/01/06 02:53:28;;;;;;;1.60;1.30;;;;;;;3.86;73.40;100719.00;4856988;29;20041;-75
2021/01/06 02:55:53;;;;;;;4.82;1.30;;;;;;;3.85;73.21;100722.75;4856905;29;20089;-76
2021/01/06 02:58:22;;;;;;;4.93;1.38;;;;;;;3.81;72.58;100722.38;4875044;29;20029;-77
2021/01/06 03:00:59;;;;;;;5.85;1.30;;;;;;;3.74;73.33;100715.28;4859158;29;20026;-75
2021/01/06 03:03:29;;;;;;;1.73;1.25;;;;;;;3.69;72.96;100702.41;4856125;29;20503;-76
2021/01/06 03:06:07;;;;;;;1.30;1.17;;;;;;;3.71;72.90;100723.84;4860660;29;20041;-78
2021/01/06 03:08:35;;;;;;;7.13;1.25;;;;;;;3.64;73.29;100705.78;4852266;29;20477;-78
2021/01/06 03:11:01;;;;;;;0.95;0.95;;;;;;;3.59;73.09;100707.44;4873653;29;20029;-77
2021/01/06 03:13:28;;;;;;;2.42;1.40;;;;;;;3.54;72.36;100710.78;4861237;29;20049;-77
2021/01/06 03:15:54;;;;;;;1.55;1.45;;;;;;;3.39;73.29;100702.09;4861427;29;20077;-77
2021/01/06 03:18:20;;;;;;;1.40;1.25;;;;;;;3.30;72.75;100709.59;4875404;29;20057;-77
2021/01/06 03:20:48;;;;;;;1.85;1.30;;;;;;;3.19;73.48;100702.16;4856237;29;20053;-78
2021/01/06 03:23:24;;;;;;;2.40;1.20;;;;;;;3.05;73.83;100706.72;4854930;29;20021;-76
2021/01/06 03:25:53;;;;;;;2.28;1.33;;;;;;;2.94;74.00;100711.72;4851615;29;20035;-77
2021/01/06 03:28:20;;;;;;;1.05;0.88;;;;;;;2.79;73.88;100708.41;4859336;29;20052;-76
2021/01/06 03:30:47;;;;;;;3.95;1.42;;;;;;;2.77;74.89;100699.66;4862147;29;20037;-78
2021/01/06 03:33:18;;;;;;;2.50;1.20;;;;;;;2.75;74.56;100701.75;4857397;29;20033;-78
2021/01/06 03:35:51;;;;;;;4.05;1.40;;;;;;;2.74;74.76;100694.69;4867861;29;20468;-77
2021/01/06 03:38:23;;;;;;;1.33;1.17;;;;;;;2.77;74.41;100694.28;4864095;29;20029;-78
2021/01/06 03:40:51;;;;;;;5.03;1.20;;;;;;;2.78;75.12;100690.53;4863542;29;20162;-77
2021/01/06 03:43:34;;;;;;;;;;;;;;;;;;;;;
2021/01/06 03:46:13;;;;;;;2.17;0.98;;;;;;;2.73;75.45;100682.22;4854346;29;20025;-78
2021/01/06 03:49:06;;;;;;;8.40;1.30;;;;;;;2.69;75.23;100672.88;4853466;29;20037;-77
2021/01/06 03:51:44;;;;;;;2.15;0.90;;;;;;;2.72;76.25;100675.19;4859521;29;20041;-77
2021/01/06 03:54:22;;;;;;;3.75;1.30;;;;;;;2.73;75.77;100671.41;4861380;29;20037;-77
2021/01/06 03:56:54;;;;;;;0.98;0.98;;;;;;;2.67;75.42;100674.94;4867411;29;20048;-77
2021/01/06 03:59:29;;;;;;;1.05;0.98;;;;;;;2.57;75.25;100662.69;4865667;29;20030;-79
2021/01/06 04:02:03;;;;;;;1.37;0.87;;;;;;;2.53;76.23;100666.84;4869439;29;20058;-79
2021/01/06 04:04:44;;;;;;;2.10;1.17;;;;;;;2.46;76.07;100660.63;4860560;29;20065;-78
2021/01/06 04:07:47;;;;;;;1.50;1.23;;;;;;;2.41;76.44;100665.78;4860514;29;20437;-78
2021/01/06 04:10:30;;;;;;;2.53;1.55;;;;;;;2.35;76.30;100672.00;4864343;29;20026;-77
2021/01/06 04:12:55;;;;;;;3.25;0.98;;;;;;;2.27;76.73;100663.06;4863373;29;20033;-77
2021/01/06 04:15:28;;;;;;;3.40;1.20;;;;;;;2.24;76.19;100663.50;4876053;29;20040;-77
2021/01/06 04:17:55;;;;;;;2.72;1.10;;;;;;;2.21;77.49;100669.31;4859939;29;20046;-77
2021/01/06 04:20:34;;;;;;;3.60;1.20;;;;;;;2.18;77.45;100663.50;4852666;29;20034;-77
2021/01/06 04:23:03;;;;;;;2.13;1.55;;;;;;;2.10;76.90;100656.41;4861846;29;20037;-76
2021/01/06 04:25:41;;;;;;;1.90;1.45;;;;;;;2.07;77.09;100665.75;4863478;29;20033;-77
2021/01/06 04:28:17;;;;;;;2.70;1.25;;;;;;;2.00;77.69;100656.81;4886389;29;20021;-77
2021/01/06 04:30:45;;;;;;;3.20;1.35;;;;;;;2.00;77.27;100666.75;4860799;29;20057;-77
2021/01/06 04:33:18;;;;;;;1.50;1.40;;;;;;;1.97;77.17;100661.78;4861169;29;20040;-79
2021/01/06 04:35:55;;;;;;;3.80;1.40;;;;;;;1.94;77.38;100662.19;4858586;29;20029;-78
2021/01/06 04:38:24;;;;;;;3.03;1.30;;;;;;;1.93;77.72;100661.38;4865020;29;20024;-78
2021/01/06 04:40:58;;;;;;;1.63;1.10;;;;;;;1.94;78.31;100657.59;4861614;29;20036;-79
2021/01/06 04:43:37;;;;;;;1.35;1.35;;;;;;;1.79;78.79;100635.38;4869435;29;20025;-78
2021/01/06 04:46:21;;;;;;;2.63;1.33;;;;;;;1.90;78.66;100657.19;4863756;29;20028;-79
2021/01/06 04:49:10;;;;;;;3.22;1.65;;;;;;;1.92;78.07;100655.13;4863304;29;20045;-79
2021/01/06 04:51:49;;;;;;;3.13;1.77;;;;;;;1.91;77.70;100658.88;4876215;29;20025;-78
2021/01/06 04:54:49;;;;;;;3.40;1.48;;;;;;;1.90;79.00;100649.09;4860357;29;20029;-78
2021/01/06 04:57:28;;;;;;;1.75;1.65;;;;;;;1.92;77.64;100648.91;4862959;29;20033;-81
2021/01/06 05:00:21;;;;;;;3.90;1.20;;;;;;;1.97;78.70;100648.28;4860191;29;20033;-79
2021/01/06 05:03:11;;;;;;;1.85;1.33;;;;;;;2.05;78.46;100643.53;4859828;29;20373;-76
2021/01/06 05:05:54;;;;;;;4.50;1.70;;;;;;;2.21;78.63;100653.09;4879141;29;20095;-77
2021/01/06 05:08:47;;;;;;;6.50;2.35;;;;;;;2.37;78.69;100645.66;4877962;29;20029;-77
2021/01/06 05:11:25;;;;;;;1.98;1.40;;;;;;;2.48;78.36;100642.31;4863710;29;20457;-76
2021/01/06 05:14:15;;;;;;;2.90;1.80;;;;;;;2.60;78.13;100635.28;4876721;29;20130;-77
2021/01/06 05:16:52;;;;;;;2.92;1.95;;;;;;;2.70;77.99;100628.63;4865494;29;21346;-77
2021/01/06 05:19:41;;;;;;;1.73;1.63;;;;;;;2.76;77.12;100634.03;4853452;29;20503;-76
2021/01/06 05:22:09;;;;;;;2.13;1.80;;;;;;;2.78;76.58;100641.91;4846683;29;20072;-77
2021/01/06 05:24:47;;;;;;;3.42;1.33;;;;;;;2.81;76.70;100636.09;4863534;29;20093;-76
2021/01/06 05:27:12;;;;;;;1.80;1.50;;;;;;;2.87;76.79;100637.94;4852337;29;20121;-76
2021/01/06 05:29:45;;;;;;;1.90;1.30;;;;;;;2.90;76.10;100640.22;4870033;29;20061;-77
2021/01/06 05:32:44;;;;;;;2.85;1.60;;;;;;;2.93;76.66;100639.81;4868927;29;20064;-77
2021/01/06 05:35:15;;;;;;;3.17;1.98;;;;;;;2.94;76.15;100641.47;4859115;29;20038;-77
2021/01/06 05:37:43;;;;;;;1.88;1.55;;;;;;;2.96;76.29;100650.22;4861224;29;20033;-77
2021/01/06 05:40:12;;;;;;;4.10;1.80;;;;;;;2.97;75.82;100654.56;4853710;29;20037;-76
2021/01/06 05:42:48;;;;;;;2.10;1.58;;;;;;;3.00;75.86;100650.63;4850445;29;20108;-78
2021/01/06 05:45:15;;;;;;;1.83;1.70;;;;;;;3.06;75.71;100648.94;4887559;29;20040;-79
2021/01/06 05:47:44;;;;;;;5.57;1.73;;;;;;;3.08;75.64;100646.84;4866320;29;20035;-78
2021/01/06 05:50:36;;;;;;;6.47;1.73;;;;;;;3.09;75.25;100659.34;4863879;29;20038;-77
2021/01/06 05:53:06;;;;;;;1.73;1.40;;;;;;;3.00;75.62;100655.19;4876440;29;20497;-79
2021/01/06 05:55:41;;;;;;;5.28;2.22;;;;;;;3.02;76.14;100659.34;4877334;29;20049;-80
2021/01/06 05:58:09;;;;;;;3.45;2.97;;;;;;;3.07;75.98;100666.84;4862471;29;20038;-79
2021/01/06 06:00:52;;;;;;;2.08;1.92;;;;;;;3.09;75.85;100665.56;4863534;29;20086;-78
2021/01/06 06:04:02;;;;;;;2.40;2.00;;;;;;;3.17;75.53;100666.38;4878146;29;20035;-79
2021/01/06 06:06:40;;;;;;;1.33;1.20;;;;;;;3.18;76.00;100665.34;4857405;29;20030;-77
2021/01/06 06:09:28;;;;;;;1.70;1.60;;;;;;;3.23;75.08;100677.19;4861326;29;20033;-77
2021/01/06 06:12:41;;;;;;;8.32;1.50;;;;;;;3.27;75.00;100678.44;4857177;29;20093;-77
2021/01/06 06:15:39;;;;;;;1.80;1.70;;;;;;;3.29;75.46;100673.63;4788798;29;20416;-78
2021/01/06 06:18:20;;;;;;;2.38;1.48;;;;;;;3.28;74.36;100674.66;4877308;29;20045;-78
2021/01/06 06:21:16;;;;;;;6.22;2.20;;;;;;;3.31;75.31;100673.41;4859926;29;20041;-78
2021/01/06 06:23:48;;;;;;;1.73;1.63;;;;;;;3.34;74.95;100667.59;4858197;29;20029;-78
2021/01/06 06:26:36;;;;;;;2.65;1.42;;;;;;;3.36;75.38;100670.06;4854839;29;20065;-77
2021/01/06 06:29:34;;;;;;;3.42;1.73;;;;;;;3.41;74.87;100670.28;4863306;29;20029;-79
2021/01/06 06:32:01;;;;;;;1.77;1.55;;;;;;;3.42;74.78;100680.88;4869031;29;20061;-78
2021/01/06 06:34:32;;;;;;;4.95;1.95;;;;;;;3.45;75.48;100677.75;4857460;29;20476;-78
2021/01/06 06:37:14;;;;;;;2.30;2.10;;;;;;;3.49;74.64;100686.28;4859864;29;20393;-78
2021/01/06 06:39:42;;;;;;;2.42;1.98;;;;;;;3.48;74.63;100696.25;4859326;29;20086;-78
2021/01/06 06:42:22;;;;;;;4.97;2.22;;;;;;;3.52;74.60;100685.00;4862943;29;20029;-77
2021/01/06 06:45:00;;;;;;;3.47;2.10;;;;;;;3.52;75.08;100687.72;4867049;29;20026;-79
2021/01/06 06:47:48;;;;;;;2.30;1.75;;;;;;;3.56;74.82;100684.34;4856969;29;20040;-77
2021/01/06 06:50:32;;;;;;;1.48;1.25;;;;;;;3.54;75.07;100689.16;4852684;29;20033;-80
2021/01/06 06:53:15;;;;;;;1.27;1.27;;;;;;;3.59;74.03;100685.81;4859651;29;20069;-78
2021/01/06 06:56:00;;;;;;;2.78;1.10;;;;;;;3.59;74.51;100678.56;4863899;29;20032;-77
2021/01/06 06:58:42;;;;;;;1.85;1.48;;;;;;;3.60;74.39;100677.47;4860637;29;20028;-76
2021/01/06 07:01:15;;;;;;;2.35;1.30;;;;;;;3.58;74.64;100679.59;4854859;29;20366;-77
2021/01/06 07:03:53;;;;;;;1.05;1.02;;;;;;;3.60;74.17;100682.91;4863721;29;20021;-77
2021/01/06 07:06:18;;;;;;;1.77;1.67;;;;;;;3.58;74.31;100685.00;4863467;29;20034;-76
2021/01/06 07:08:48;;;;;;;5.20;2.03;;;;;;;3.57;74.70;100683.31;4877599;29;20121;-77
2021/01/06 07:11:13;;;;;;;1.25;1.20;;;;;;;3.53;74.33;100682.09;4856092;29;20022;-78
2021/01/06 07:13:40;;;;;;;3.08;1.67;;;;;;;3.45;74.58;100674.22;4859678;29;20034;-77
2021/01/06 07:16:14;;;;;;;6.18;2.17;;;;;;;3.39;74.27;100664.25;4845347;29;20038;-78
2021/01/06 07:18:46;;;;;;;1.42;1.33;;;;;;;3.28;74.18;100680.06;4857226;29;20057;-75
2021/01/06 07:21:11;;;;;;;1.48;1.38;;;;;;;3.20;75.41;100683.03;4849821;29;20034;-76
2021/01/06 07:23:44;;;;;;;1.83;1.35;;;;;;;3.17;75.45;100678.03;4873991;29;20048;-73
2021/01/06 07:26:24;;;;;;;2.03;1.92;;;;;;;3.16;75.84;100676.38;4859317;29;20128;-75
2021/01/06 07:29:08;;;;;;;1.30;1.20;;;;;;;3.15;75.14;100680.09;4859713;29;20034;-76
2021/01/06 07:31:53;;;;;;;3.15;1.70;;;;;;;3.19;74.90;100686.75;4873926;29;20048;-77
2021/01/06 07:34:23;;;;;;;5.30;1.30;;;;;;;3.17;75.09;100683.44;4849561;29;20518;-77
2021/01/06 07:36:53;;;;;;;1.20;1.20;;;;;;;3.19;75.06;100683.22;4876415;29;20048;-77
2021/01/06 07:39:26;;;;;;;2.55;1.83;;;;;;;3.24;75.68;100689.66;4858360;29;20053;-76
2021/01/06 07:41:52;;;;;;;3.67;1.10;;;;;;;3.24;75.39;100694.22;4862898;29;20034;-76
2021/01/06 07:44:21;;;;;;;1.60;1.42;;;;;;;3.27;75.36;100691.94;4858493;29;20624;-76
2021/01/06 07:46:54;;;;;;;1.63;1.50;;;;;;;3.30;76.10;100688.81;4860499;29;20033;-76
2021/01/06 07:49:30;;;;;;;2.35;1.30;;;;;;;3.37;75.40;100698.78;4868668;29;20454;-75
2021/01/06 07:52:01;;;;;;;2.38;2.15;;;;;;;3.38;75.01;100700.44;4854141;29;20037;-75
2021/01/06 07:54:47;;;;;;;2.05;1.40;;;;;;;3.40;75.37;100690.25;4865390;29;20076;-75
2021/01/06 07:57:27;;;;;;;3.03;1.83;;;;;;;3.41;75.60;100694.63;4860570;29;20060;-75
2021/01/06 07:59:56;;;;;;;3.53;1.40;;;;;;;3.44;75.44;100700.41;4859854;29;20061;-76
2021/01/06 08:02:30;;;;;;;1.35;1.27;;;;;;;3.48;75.65;100700.84;4864700;29;20041;-76
2021/01/06 08:04:55;;;;;;;0.95;0.95;;;;;;;3.53;75.17;100702.91;4876853;29;20054;-77
2021/01/06 08:07:22;;;;;;;0.90;0.90;;;;;;;3.58;75.40;100705.81;4868023;29;20693;-77
2021/01/06 08:09:49;;;;;;;2.40;1.63;;;;;;;3.56;75.15;100703.28;4866552;29;20038;-78
2021/01/06 08:12:31;;;;;;;0.93;0.93;;;;;;;3.60;74.80;100706.41;4863174;29;20033;-78
2021/01/06 08:15:19;;;;;;;2.08;1.33;;;;;;;3.58;74.89;100706.63;4850470;29;20025;-79
2021/01/06 08:17:52;;;;;;;1.77;1.67;;;;;;;3.56;75.18;100703.28;4854638;29;20098;-78
2021/01/06 08:20:23;;;;;;;2.13;1.27;;;;;;;3.55;75.41;100704.34;4863503;29;20037;-77
2021/01/06 08:22:58;;;;;;;2.33;1.80;;;;;;;3.58;75.68;100705.81;4860111;29;20032;-76
2021/01/06 08:25:31;;;;;;;1.55;1.45;;;;;;;3.61;75.34;100717.00;4858686;29;20033;-76
2021/01/06 08:27:56;;;;;;;3.35;1.63;;;;;;;3.60;74.96;100706.41;4879350;29;20034;-76
2021/01/06 08:30:29;;;;;;;1.70;1.60;;;;;;;3.63;75.32;100719.50;4862095;29;20069;-75
2021/01/06 08:33:07;;;;;;;3.80;1.42;;;;;;;3.65;75.85;100718.25;4863452;29;20074;-76
2021/01/06 08:35:39;;;;;;;6.80;2.10;;;;;;;3.64;75.57;100727.41;4854284;29;20052;-75
2021/01/06 08:38:33;;;;;;;5.10;2.47;;;;;;;3.65;76.01;100729.06;4862505;29;20065;-75
2021/01/06 08:41:26;;;;;;;2.55;1.70;;;;;;;3.63;75.18;100727.63;4856961;29;20026;-76
2021/01/06 08:43:52;;;;;;;6.05;1.65;;;;;;;3.63;75.62;100727.63;4851754;29;20409;-75
2021/01/06 08:46:24;;;;;;;1.95;1.75;;;;;;;3.66;75.56;100733.44;4846980;29;20045;-75
2021/01/06 08:48:52;;;;;;;1.65;1.55;;;;;;;3.70;75.59;100741.13;4840205;29;21804;-74
2021/01/06 08:51:33;;;;;;;4.93;2.00;;;;;;;3.72;75.40;100739.03;4846382;29;20022;-76
2021/01/06 08:53:58;;;;;;;1.85;1.75;;;;;;;3.69;76.28;100734.88;4862132;29;20034;-76
2021/01/06 08:56:27;;;;;;;5.50;1.70;;;;;;;3.71;75.41;100734.66;4861364;29;20042;-75
2021/01/06 08:58:55;;;;;;;2.55;1.70;;;;;;;3.74;75.30;100737.78;4853730;29;20033;-76
2021/01/06 09:01:41;;;;;;;3.15;1.95;;;;;;;3.81;75.04;100745.88;4858415;29;20021;-75
2021/01/06 09:04:13;;;;;;;3.92;1.88;;;;;;;3.77;75.30;100742.78;4847935;29;20465;-74
2021/01/06 09:07:14;;;;;;;3.85;2.00;;;;;;;3.83;75.77;100747.31;4858611;29;26376;-75
2021/01/06 09:09:42;;;;;;;2.70;1.67;;;;;;;3.85;75.80;100747.09;4854033;29;20078;-75
2021/01/06 09:12:45;;;;;;;2.65;2.05;;;;;;;3.76;75.61;100724.03;4866233;29;20064;-75
2021/01/06 09:15:46;;;;;;;2.25;2.05;;;;;;;3.96;75.38;100749.16;4851582;29;20575;-75
2021/01/06 09:18:20;;;;;;;2.08;1.65;;;;;;;3.95;75.79;100750.19;4839993;29;20132;-75
2021/01/06 09:21:00;;;;;;;7.13;2.35;;;;;;;4.00;75.79;100752.25;4844936;29;20117;-74
2021/01/06 09:23:26;;;;;;;4.97;1.67;;;;;;;3.94;75.44;100753.97;4871681;29;20048;-75
2021/01/06 09:25:52;;;;;;;6.60;1.77;;;;;;;4.02;75.28;100756.41;4876074;29;20480;-75
2021/01/06 09:28:19;;;;;;;2.85;1.80;;;;;;;3.92;74.99;100739.78;4863374;29;20041;-75
2021/01/06 09:30:46;;;;;;;2.20;1.27;;;;;;;4.05;75.93;100754.34;4877034;29;20036;-75
2021/01/06 09:33:33;;;;;;;1.38;1.08;;;;;;;4.09;75.18;100752.84;4874190;29;20029;-76
2021/01/06 09:36:04;;;;;;;1.88;1.33;;;;;;;4.14;74.80;100761.16;4876637;29;20029;-75
2021/01/06 09:38:43;;;;;;;2.10;1.33;;;;;;;4.18;75.81;100751.56;4875459;29;20040;-76
2021/01/06 09:41:17;;;;;;;2.58;1.60;;;;;;;4.16;75.26;100751.78;4858226;29;20069;-75
2021/01/06 09:43:49;;;;;;;3.72;2.10;;;;;;;4.12;75.46;100734.31;4857766;29;20104;-75
2021/01/06 09:46:35;;;;;;;1.15;1.05;;;;;;;4.23;75.18;100740.91;4859320;29;20028;-75
2021/01/06 09:49:09;;;;;;;2.42;1.42;;;;;;;4.38;75.33;100748.75;4855412;29;20472;-74
2021/01/06 09:51:40;;;;;;;2.25;1.50;;;;;;;4.36;75.03;100751.66;4853372;29;20044;-76
2021/01/06 09:54:06;;;;;;;1.85;1.67;;;;;;;4.46;74.85;100761.19;4858492;29;20045;-75
2021/01/06 09:56:34;;;;;;;4.18;1.20;;;;;;;4.39;75.07;100746.88;4857585;29;20040;-76
2021/01/06 09:59:20;;;;;;;4.22;2.30;;;;;;;4.42;75.09;100755.38;4857494;29;20388;-76
2021/01/06 10:01:53;;;;;;;1.90;1.30;;;;;;;4.47;75.11;100760.97;4851784;29;20037;-75
2021/01/06 10:04:22;;;;;;;1.02;1.02;;;;;;;4.52;75.12;100763.84;4856416;29;20038;-75
2021/01/06 10:07:13;;;;;;;1.50;1.40;;;;;;;4.54;75.21;100758.22;4860730;29;20045;-75
2021/01/06 10:09:46;;;;;;;2.17;1.90;;;;;;;4.58;75.19;100758.63;4856859;29;20361;-76
2021/01/06 10:12:42;;;;;;;1.55;1.42;;;;;;;4.65;74.56;100765.66;4856535;29;20496;-75
2021/01/06 10:15:19;;;;;;;1.98;1.77;;;;;;;4.62;74.55;100760.69;4857566;29;20094;-76
2021/01/06 10:18:01;;;;;;;1.20;1.20;;;;;;;4.65;74.42;100754.81;4854800;29;20049;-76
2021/01/06 10:20:43;;;;;;;1.60;1.27;;;;;;;4.66;74.65;100756.50;4854699;29;20029;-76
2021/01/06 10:23:48;;;;;;;1.85;0.90;;;;;;;4.79;74.56;100762.84;4858207;29;20065;-76
2021/01/06 10:26:38;;;;;;;5.05;0.98;;;;;;;4.82;74.07;100770.53;4859741;29;20141;-75
2021/01/06 10:29:25;;;;;;;1.23;1.13;;;;;;;4.79;73.98;100765.56;4871333;29;20025;-76
2021/01/06 10:32:09;;;;;;;1.08;1.08;;;;;;;4.81;73.94;100764.31;4855047;29;20030;-77
2021/01/06 10:34:48;;;;;;;2.05;1.30;;;;;;;4.84;74.26;100760.31;4850507;29;20037;-74
2021/01/06 10:37:27;;;;;;;4.07;1.90;;;;;;;4.90;73.77;100768.38;4867005;29;20041;-73
2021/01/06 10:39:58;;;;;;;2.28;1.85;;;;;;;4.89;73.40;100765.91;4859423;29;20037;-74
2021/01/06 10:42:23;;;;;;;1.70;1.60;;;;;;;4.89;73.91;100768.63;4855370;29;20037;-75
2021/01/06 10:45:01;;;;;;;3.63;2.92;;;;;;;4.82;73.79;100751.56;4866699;29;20041;-74
2021/01/06 10:47:43;;;;;;;4.25;3.22;;;;;;;4.99;73.72;100751.88;4847935;29;20053;-75
2021/01/06 10:50:26;;;;;;;4.43;3.95;;;;;;;5.03;73.93;100758.50;4861609;29;20085;-75
2021/01/06 10:53:13;;;;;;;4.47;4.07;;;;;;;5.04;73.24;100757.47;4853576;29;20125;-75
2021/01/06 10:55:42;;;;;;;3.65;3.35;;;;;;;5.03;73.54;100751.19;4869554;29;20085;-78
2021/01/06 10:58:22;;;;;;;4.07;2.90;;;;;;;5.12;73.31;100754.47;4876880;29;20026;-76
2021/01/06 11:01:29;;;;;;;3.03;2.10;;;;;;;5.13;73.36;100744.47;4870457;29;20010;-76
2021/01/06 11:04:34;;;;;;;1.92;1.83;;;;;;;5.25;73.00;100759.75;4867695;29;20037;-75
2021/01/06 11:07:13;;;;;;;1.48;1.40;;;;;;;5.24;72.92;100738.28;4867886;29;20145;-74
2021/01/06 11:09:50;;;;;;;3.30;2.33;;;;;;;5.34;72.60;100746.75;4861102;29;20029;-75
2021/01/06 11:12:33;;;;;;;1.98;1.63;;;;;;;5.36;72.94;100739.25;4855874;29;20038;-71
2021/01/06 11:15:13;;;;;;;1.83;1.73;;;;;;;5.44;72.65;100731.88;4850751;29;20029;-74
2021/01/06 11:17:43;;;;;;;2.63;2.08;;;;;;;5.46;72.48;100721.59;4853466;29;20046;-74
2021/01/06 11:20:30;;;;;;;3.75;2.38;;;;;;;5.55;72.09;100714.84;4855347;29;20433;-72
2021/01/06 11:23:23;;;;;;;2.83;2.10;;;;;;;5.63;72.06;100730.00;4867817;29;20045;-74
2021/01/06 11:25:55;;;;;;;2.30;2.15;;;;;;;5.59;72.06;100713.31;4857633;29;20070;-75
2021/01/06 11:28:32;;;;;;;1.77;1.67;;;;;;;5.62;71.84;100709.34;4859262;29;20026;-74
2021/01/06 11:31:19;;;;;;;7.13;3.33;;;;;;;5.62;72.11;100701.19;4863222;29;20032;-75
2021/01/06 11:33:49;;;;;;;2.50;2.30;;;;;;;5.62;72.58;100698.47;4861302;29;20108;-76
2021/01/06 11:36:30;;;;;;;2.50;1.95;;;;;;;5.69;72.40;100710.91;4859011;29;20022;-75
2021/01/06 11:39:01;;;;;;;1.65;1.55;;;;;;;5.67;72.39;100696.75;4856431;29;20039;-75
2021/01/06 11:41:26;;;;;;;1.98;1.88;;;;;;;5.77;71.91;100707.91;4858871;29;20436;-72
2021/01/06 11:44:19;;;;;;;2.08;1.35;;;;;;;5.85;72.18;100717.63;4853467;29;20052;-75
2021/01/06 11:46:53;;;;;;;5.18;1.98;;;;;;;5.84;71.80;100710.56;4861124;29;20030;-78
2021/01/06 11:49:53;;;;;;;1.25;1.15;;;;;;;5.83;71.75;100697.22;4855390;29;20043;-77
2021/01/06 11:52:26;;;;;;;1.30;1.20;;;;;;;5.97;72.03;100698.69;4857041;29;20082;-75
2021/01/06 11:54:59;;;;;;;1.85;1.75;;;;;;;6.06;71.27;100710.06;4862166;29;20032;-74
2021/01/06 11:58:22;;;;;;;3.13;2.20;;;;;;;6.06;71.37;100705.50;4865583;29;20010;-74
2021/01/06 12:01:05;;;;;;;3.40;2.10;;;;;;;5.98;71.23;100697.66;4863876;29;20535;-75
2021/01/06 12:03:58;;;;;;;2.15;2.03;;;;;;;6.00;71.15;100695.56;4835394;29;20556;-75
2021/01/06 12:06:41;;;;;;;2.65;2.55;;;;;;;5.95;70.69;100695.38;4853564;29;20396;-75
2021/01/06 12:09:31;;;;;;;2.75;2.38;;;;;;;5.88;71.25;100698.16;4858361;29;20542;-75
2021/01/06 12:12:29;;;;;;;2.58;2.40;;;;;;;5.79;71.35;100699.53;4859064;29;20022;-78
2021/01/06 12:15:04;;;;;;;2.00;1.90;;;;;;;5.77;71.46;100697.03;4859357;29;20033;-78
2021/01/06 12:17:38;;;;;;;2.70;2.50;;;;;;;5.76;71.37;100689.94;4863670;29;20042;-79